createdAt,value
2022-11-09T00:01:01.375Z,15.72
2022-11-09T00:03:28.712Z,15.72
2022-11-09T00:06:00.327Z,15.71
2022-11-09T00:08:28.440Z,15.71
2022-11-09T00:11:01.691Z,15.71
2022-11-09T00:13:29.024Z,15.71
2022-11-09T00:16:00.392Z,15.70
2022-11-09T00:18:28.874Z,15.71
2022-11-09T00:20:56.709Z,15.70
2022-11-09T00:23:23.965Z,15.71
2022-11-09T00:25:51.526Z,15.69
2022-11-09T00:28:18.766Z,15.71
2022-11-09T00:30:46.388Z,15.70
2022-11-09T00:33:13.626Z,15.70
2022-11-09T00:35:41.217Z,15.70
2022-11-09T00:38:08.604Z,15.70
2022-11-09T00:40:36.617Z,15.70
2022-11-09T00:43:04.343Z,15.70
2022-11-09T00:45:31.909Z,15.69
2022-11-09T00:47:59.163Z,15.69
2022-11-09T00:50:26.651Z,15.69
2022-11-09T00:52:53.981Z,15.70
2022-11-09T00:55:23.864Z,15.68
2022-11-09T00:57:52.121Z,15.69
2022-11-09T01:00:21.905Z,15.69
2022-11-09T01:02:51.000Z,15.69
2022-11-09T01:05:19.542Z,15.68
2022-11-09T01:07:46.948Z,15.68
2022-11-09T01:10:14.498Z,15.68
2022-11-09T01:12:42.222Z,15.68
2022-11-09T01:15:10.150Z,15.67
2022-11-09T01:17:37.418Z,15.68
2022-11-09T01:20:06.021Z,15.69
2022-11-09T01:22:33.287Z,15.67
2022-11-09T01:25:00.760Z,15.67
2022-11-09T01:27:27.972Z,15.67
2022-11-09T01:29:55.918Z,15.67
2022-11-09T01:32:23.157Z,15.67
2022-11-09T01:34:50.693Z,15.66
2022-11-09T01:37:17.936Z,15.66
2022-11-09T01:39:45.526Z,15.66
2022-11-09T01:42:12.823Z,15.66
2022-11-09T01:44:41.180Z,15.65
2022-11-09T01:47:23.344Z,15.64
2022-11-09T01:50:00.142Z,15.64
2022-11-09T01:52:30.312Z,15.63
2022-11-09T01:55:02.135Z,15.64
2022-11-09T01:57:33.128Z,15.64
2022-11-09T02:00:07.495Z,15.63
2022-11-09T02:02:38.916Z,15.64
2022-11-09T02:05:13.320Z,15.64
2022-11-09T02:07:42.520Z,15.64
2022-11-09T02:10:25.643Z,15.63
2022-11-09T02:12:54.495Z,15.63
2022-11-09T02:15:22.865Z,15.63
2022-11-09T02:17:53.768Z,15.61
2022-11-09T02:20:23.278Z,15.63
2022-11-09T02:22:51.320Z,15.62
2022-11-09T02:25:21.977Z,15.62
2022-11-09T02:27:50.401Z,15.62
2022-11-09T02:30:20.630Z,15.60
2022-11-09T02:32:48.646Z,15.61
2022-11-09T02:35:16.518Z,15.61
2022-11-09T02:37:50.243Z,15.60
2022-11-09T02:40:26.731Z,15.59
2022-11-09T02:42:54.383Z,15.60
2022-11-09T02:45:21.957Z,15.60
2022-11-09T02:47:49.189Z,15.59
2022-11-09T02:50:16.901Z,15.59
2022-11-09T02:52:44.175Z,15.59
2022-11-09T02:55:11.776Z,15.59
2022-11-09T02:57:39.036Z,15.58
2022-11-09T03:00:07.579Z,15.58
2022-11-09T03:02:35.264Z,15.59
2022-11-09T03:05:03.730Z,15.57
2022-11-09T03:07:30.982Z,15.58
2022-11-09T03:09:58.605Z,15.57
2022-11-09T03:12:31.629Z,15.57
2022-11-09T03:15:02.920Z,15.58
2022-11-09T03:17:32.119Z,15.58
2022-11-09T03:19:59.662Z,15.57
2022-11-09T03:22:27.198Z,15.56
2022-11-09T03:24:54.788Z,15.56
2022-11-09T03:27:22.293Z,15.56
2022-11-09T03:29:49.920Z,15.57
2022-11-09T03:32:17.405Z,15.56
2022-11-09T03:34:45.005Z,15.55
2022-11-09T03:37:12.913Z,15.56
2022-11-09T03:39:40.900Z,15.55
2022-11-09T03:42:08.085Z,15.55
2022-11-09T03:44:35.637Z,15.56
2022-11-09T03:47:03.081Z,15.55
2022-11-09T03:49:30.651Z,15.54
2022-11-09T03:51:58.200Z,15.54
2022-11-09T03:54:25.772Z,15.55
2022-11-09T03:56:53.017Z,15.54
2022-11-09T03:59:20.515Z,15.53
2022-11-09T04:01:48.330Z,15.53
2022-11-09T04:04:16.013Z,15.53
2022-11-09T04:06:43.301Z,15.53
2022-11-09T04:09:11.230Z,15.53
2022-11-09T04:11:39.041Z,15.53
2022-11-09T04:14:07.035Z,15.53
2022-11-09T04:16:34.579Z,15.51
2022-11-09T04:19:02.175Z,15.52
2022-11-09T04:21:29.478Z,15.51
2022-11-09T04:23:57.037Z,15.52
2022-11-09T04:26:24.302Z,15.52
2022-11-09T04:28:51.903Z,15.51
2022-11-09T04:31:19.133Z,15.50
2022-11-09T04:33:51.132Z,15.51
2022-11-09T04:36:18.406Z,15.51
2022-11-09T04:38:45.988Z,15.50
2022-11-09T04:41:13.558Z,15.48
2022-11-09T04:43:41.511Z,15.49
2022-11-09T04:46:09.780Z,15.50
2022-11-09T04:48:39.957Z,15.50
2022-11-09T04:51:10.412Z,15.50
2022-11-09T04:53:39.052Z,15.48
2022-11-09T04:56:07.457Z,15.48
2022-11-09T04:58:35.099Z,15.49
2022-11-09T05:01:07.328Z,15.48
2022-11-09T05:03:34.933Z,15.47
2022-11-09T05:06:22.523Z,15.47
2022-11-09T05:08:50.272Z,15.47
2022-11-09T05:11:17.633Z,15.47
2022-11-09T05:13:45.288Z,15.48
2022-11-09T05:16:13.329Z,15.46
2022-11-09T05:18:40.955Z,15.46
2022-11-09T05:21:08.293Z,15.47
2022-11-09T05:23:54.616Z,15.45
2022-11-09T05:26:22.039Z,15.45
2022-11-09T05:28:49.556Z,15.44
2022-11-09T05:31:16.790Z,15.45
2022-11-09T05:33:44.365Z,15.45
2022-11-09T05:36:11.675Z,15.44
2022-11-09T05:38:39.224Z,15.45
2022-11-09T05:41:06.628Z,15.44
2022-11-09T05:43:34.208Z,15.43
2022-11-09T05:46:06.440Z,15.42
2022-11-09T05:48:34.579Z,15.42
2022-11-09T05:51:04.273Z,15.42
2022-11-09T05:53:32.823Z,15.42
2022-11-09T05:56:08.837Z,15.43
2022-11-09T05:58:38.884Z,15.41
2022-11-09T06:01:07.665Z,15.42
2022-11-09T06:03:35.840Z,15.42
2022-11-09T06:06:08.393Z,15.42
2022-11-09T06:08:36.869Z,15.41
2022-11-09T06:11:07.242Z,15.41
2022-11-09T06:13:35.404Z,15.41
2022-11-09T06:16:04.751Z,15.41
2022-11-09T06:18:33.859Z,15.42
2022-11-09T06:21:02.953Z,15.41
2022-11-09T06:23:30.769Z,15.41
2022-11-09T06:26:00.424Z,15.42
2022-11-09T06:28:28.301Z,15.42
2022-11-09T06:31:03.484Z,15.42
2022-11-09T06:33:32.445Z,15.42
2022-11-09T06:35:59.948Z,15.43
2022-11-09T06:38:27.812Z,15.42
2022-11-09T06:40:57.243Z,15.42
2022-11-09T06:43:25.276Z,15.43
2022-11-09T06:45:52.828Z,15.43
2022-11-09T06:48:21.226Z,15.41
2022-11-09T06:50:49.152Z,15.44
2022-11-09T06:53:17.805Z,15.44
2022-11-09T06:55:50.310Z,15.43
2022-11-09T06:58:19.752Z,15.44
2022-11-09T07:00:48.192Z,15.43
2022-11-09T07:03:17.482Z,15.43
2022-11-09T07:05:45.428Z,15.44
2022-11-09T07:08:13.855Z,15.43
2022-11-09T07:10:42.264Z,15.45
2022-11-09T07:13:10.907Z,15.45
2022-11-09T07:15:38.914Z,15.46
2022-11-09T07:18:09.978Z,15.46
2022-11-09T07:20:37.629Z,15.46
2022-11-09T07:23:05.301Z,15.46
2022-11-09T07:25:32.703Z,15.48
2022-11-09T07:28:08.448Z,15.47
2022-11-09T07:30:36.911Z,15.47
2022-11-09T07:33:12.920Z,15.49
2022-11-09T07:35:40.369Z,15.49
2022-11-09T07:38:08.499Z,15.49
2022-11-09T07:40:35.996Z,15.48
2022-11-09T07:43:05.962Z,15.50
2022-11-09T07:45:35.148Z,15.51
2022-11-09T07:48:06.247Z,15.52
2022-11-09T07:50:35.114Z,15.51
2022-11-09T07:53:03.428Z,15.52
2022-11-09T07:55:31.138Z,15.53
2022-11-09T07:58:04.686Z,15.53
2022-11-09T08:00:34.077Z,15.53
2022-11-09T08:03:01.766Z,15.54
2022-11-09T08:05:30.078Z,15.54
2022-11-09T08:08:00.036Z,15.55
2022-11-09T08:10:29.106Z,15.56
2022-11-09T08:13:01.159Z,15.56
2022-11-09T08:15:29.417Z,15.56
2022-11-09T08:18:01.959Z,15.56
2022-11-09T08:20:30.541Z,15.57
2022-11-09T08:23:03.366Z,15.59
2022-11-09T08:25:35.483Z,15.59
2022-11-09T08:28:03.570Z,15.59
2022-11-09T08:30:31.958Z,15.59
2022-11-09T08:33:01.169Z,15.59
2022-11-09T08:35:29.571Z,15.59
2022-11-09T08:38:01.880Z,15.60
2022-11-09T08:40:29.987Z,15.59
2022-11-09T08:43:03.784Z,15.59
2022-11-09T08:45:33.977Z,15.59
2022-11-09T08:48:02.994Z,15.60
2022-11-09T08:50:31.830Z,15.59
2022-11-09T08:53:01.434Z,15.60
2022-11-09T08:55:29.377Z,15.60
2022-11-09T08:57:58.536Z,15.59
2022-11-09T09:00:26.434Z,15.61
2022-11-09T09:02:54.086Z,15.61
2022-11-09T09:05:22.067Z,15.60
2022-11-09T09:07:49.716Z,15.59
2022-11-09T09:10:17.104Z,15.61
2022-11-09T09:12:44.913Z,15.61
2022-11-09T09:15:12.257Z,15.61
2022-11-09T09:17:39.753Z,15.62
2022-11-09T09:20:07.813Z,15.61
2022-11-09T09:22:35.816Z,15.62
2022-11-09T09:25:04.236Z,15.63
2022-11-09T09:27:34.016Z,15.62
2022-11-09T09:30:01.900Z,15.63
2022-11-09T09:32:29.683Z,15.63
2022-11-09T09:34:56.967Z,15.64
2022-11-09T09:37:24.522Z,15.64
2022-11-09T09:39:51.943Z,15.62
2022-11-09T09:42:30.691Z,15.63
2022-11-09T09:45:27.990Z,15.63
2022-11-09T09:48:21.221Z,15.63
2022-11-09T09:50:52.777Z,15.63
2022-11-09T09:53:40.844Z,15.64
2022-11-09T09:56:16.932Z,15.64
2022-11-09T09:59:33.035Z,15.66
2022-11-09T10:02:00.353Z,15.66
2022-11-09T10:04:41.359Z,15.67
2022-11-09T10:07:17.433Z,15.67
2022-11-09T10:10:16.629Z,15.67
2022-11-09T10:13:15.387Z,15.68
2022-11-09T10:15:58.667Z,15.69
2022-11-09T10:18:50.194Z,15.68
2022-11-09T10:21:35.693Z,15.68
2022-11-09T10:24:16.229Z,15.69
2022-11-09T10:26:52.680Z,15.69
2022-11-09T10:29:25.696Z,15.70
2022-11-09T10:32:08.295Z,15.69
2022-11-09T10:34:51.460Z,15.69
2022-11-09T10:37:21.774Z,15.71
2022-11-09T10:39:58.129Z,15.71
2022-11-09T10:42:25.677Z,15.70
2022-11-09T10:44:53.014Z,15.71
2022-11-09T10:47:22.800Z,15.71
2022-11-09T10:50:20.985Z,15.71
2022-11-09T10:52:48.960Z,15.71
2022-11-09T10:55:25.615Z,15.73
2022-11-09T10:58:23.090Z,15.73
2022-11-09T11:01:21.579Z,15.73
2022-11-09T11:03:53.927Z,15.73
2022-11-09T11:06:21.074Z,15.73
2022-11-09T11:08:51.728Z,15.72
2022-11-09T11:11:34.422Z,15.72
2022-11-09T11:14:22.662Z,15.72
2022-11-09T11:16:53.126Z,15.73
2022-11-09T11:19:44.657Z,15.73
2022-11-09T11:22:12.624Z,15.73
2022-11-09T11:25:00.453Z,15.73
2022-11-09T11:27:45.034Z,15.74
2022-11-09T11:30:16.273Z,15.73
2022-11-09T11:32:50.189Z,15.73
2022-11-09T11:35:34.385Z,15.74
2022-11-09T11:38:04.486Z,15.73
2022-11-09T11:40:53.272Z,15.75
2022-11-09T11:43:33.451Z,15.74
2022-11-09T11:46:10.544Z,15.74
2022-11-09T11:49:13.771Z,15.74
2022-11-09T11:51:50.244Z,15.74
2022-11-09T11:54:30.035Z,15.75
2022-11-09T11:57:18.974Z,15.75
2022-11-09T11:59:55.296Z,15.75
2022-11-09T12:02:44.343Z,15.75
2022-11-09T12:05:31.347Z,15.75
2022-11-09T12:08:20.163Z,15.76
2022-11-09T12:11:10.309Z,15.76
2022-11-09T12:14:05.017Z,15.76
2022-11-09T12:16:51.701Z,15.76
2022-11-09T12:19:35.542Z,15.77
2022-11-09T12:22:22.959Z,15.76
2022-11-09T12:25:09.919Z,15.75
2022-11-09T12:27:49.390Z,15.76
2022-11-09T12:30:21.324Z,15.78
2022-11-09T12:32:59.926Z,15.78
2022-11-09T12:35:40.702Z,15.78
2022-11-09T12:38:17.183Z,15.78
2022-11-09T12:40:55.819Z,15.79
2022-11-09T12:43:35.324Z,15.80
2022-11-09T12:46:05.253Z,15.80
2022-11-09T12:48:35.346Z,15.80
2022-11-09T12:51:05.229Z,15.81
2022-11-09T12:53:38.124Z,15.81
2022-11-09T12:56:18.937Z,15.81
2022-11-09T12:58:46.725Z,15.81
2022-11-09T13:01:33.947Z,15.81
2022-11-09T13:04:03.982Z,15.81
2022-11-09T13:06:36.711Z,15.81
2022-11-09T13:09:05.898Z,15.81
2022-11-09T13:11:42.396Z,15.82
2022-11-09T13:14:22.196Z,15.81
2022-11-09T13:16:50.531Z,15.82
2022-11-09T13:19:36.161Z,15.82
2022-11-09T13:22:12.788Z,15.81
2022-11-09T13:24:51.152Z,15.82
2022-11-09T13:27:43.402Z,15.82
2022-11-09T13:30:25.666Z,15.82
2022-11-09T13:33:09.523Z,15.82
2022-11-09T13:35:39.806Z,15.83
2022-11-09T13:38:26.476Z,15.83
2022-11-09T13:41:01.113Z,15.83
2022-11-09T13:43:39.861Z,15.83
2022-11-09T13:46:10.136Z,15.83
2022-11-09T13:48:48.801Z,15.83
2022-11-09T13:51:37.006Z,15.82
2022-11-09T13:54:23.558Z,15.83
2022-11-09T13:56:53.068Z,15.83
2022-11-09T13:59:28.177Z,15.83
2022-11-09T14:02:01.147Z,15.81
2022-11-09T14:04:37.770Z,15.83
2022-11-09T14:07:20.590Z,15.82
2022-11-09T14:10:03.133Z,15.82
2022-11-09T14:13:12.573Z,15.81
2022-11-09T14:16:09.931Z,15.81
2022-11-09T14:18:41.247Z,15.80
2022-11-09T14:21:30.242Z,15.81
2022-11-09T14:24:03.970Z,15.81
2022-11-09T14:26:31.970Z,15.80
2022-11-09T14:28:59.915Z,15.81
2022-11-09T14:31:29.356Z,15.80
2022-11-09T14:34:02.579Z,15.80
2022-11-09T14:36:31.583Z,15.78
2022-11-09T14:39:02.593Z,15.79
2022-11-09T14:41:30.390Z,15.79
2022-11-09T14:44:00.560Z,15.78
2022-11-09T14:46:31.389Z,15.78
2022-11-09T14:49:03.174Z,15.78
2022-11-09T14:51:37.463Z,15.78
2022-11-09T14:54:16.829Z,15.78
2022-11-09T14:56:45.367Z,15.78
2022-11-09T14:59:16.091Z,15.77
2022-11-09T15:02:05.771Z,15.77
2022-11-09T15:04:58.185Z,15.77
2022-11-09T15:07:29.169Z,15.77
2022-11-09T15:10:02.312Z,15.76
2022-11-09T15:12:30.517Z,15.75
2022-11-09T15:15:04.567Z,15.75
2022-11-09T15:17:37.573Z,15.75
2022-11-09T15:20:08.071Z,15.74
2022-11-09T15:22:48.835Z,15.75
2022-11-09T15:25:33.723Z,15.74
2022-11-09T15:28:10.427Z,15.74
2022-11-09T15:30:54.546Z,15.73
2022-11-09T15:33:26.805Z,15.74
2022-11-09T15:35:59.047Z,15.73
2022-11-09T15:38:39.732Z,15.73
2022-11-09T15:41:20.189Z,15.73
2022-11-09T15:43:47.841Z,15.73
2022-11-09T15:46:41.523Z,15.72
2022-11-09T15:49:21.707Z,15.72
2022-11-09T15:51:50.476Z,15.73
2022-11-09T15:54:18.380Z,15.72
2022-11-09T15:56:45.767Z,15.72
2022-11-09T15:59:24.969Z,15.72
2022-11-09T16:01:52.670Z,15.72
2022-11-09T16:04:20.521Z,15.72
2022-11-09T16:06:48.229Z,15.73
2022-11-09T16:09:16.069Z,15.72
2022-11-09T16:11:43.628Z,15.71
2022-11-09T16:14:11.180Z,15.71
2022-11-09T16:16:38.375Z,15.70
2022-11-09T16:19:06.016Z,15.71
2022-11-09T16:21:33.266Z,15.71
2022-11-09T16:24:00.538Z,15.71
2022-11-09T16:26:28.104Z,15.71
2022-11-09T16:28:55.627Z,15.71
2022-11-09T16:31:48.351Z,15.71
2022-11-09T16:34:10.420Z,15.71
2022-11-09T16:36:44.283Z,15.72
2022-11-09T16:39:18.762Z,15.71
2022-11-09T16:41:48.874Z,15.71
2022-11-09T16:44:20.008Z,15.71
2022-11-09T16:46:48.052Z,15.70
2022-11-09T16:49:15.509Z,15.70
2022-11-09T16:51:43.560Z,15.69
2022-11-09T16:54:10.777Z,15.69
2022-11-09T16:56:37.968Z,15.70
2022-11-09T16:59:05.488Z,15.70
2022-11-09T17:01:32.872Z,15.70
2022-11-09T17:04:00.284Z,15.69
2022-11-09T17:06:28.332Z,15.70
2022-11-09T17:08:56.978Z,15.70
2022-11-09T17:11:25.044Z,15.68
2022-11-09T17:13:57.403Z,15.69
2022-11-09T17:16:25.339Z,15.68
2022-11-09T17:18:57.209Z,15.68
2022-11-09T17:21:27.242Z,15.67
2022-11-09T17:23:56.583Z,15.68
2022-11-09T17:26:24.951Z,15.68
2022-11-09T17:28:52.548Z,15.67
2022-11-09T17:31:23.413Z,15.67
2022-11-09T17:33:50.714Z,15.67
2022-11-09T17:36:35.107Z,15.66
2022-11-09T17:39:06.865Z,15.69
2022-11-09T17:41:37.461Z,15.68
2022-11-09T17:44:07.760Z,15.67
2022-11-09T17:46:35.415Z,15.67
2022-11-09T17:49:08.551Z,15.68
2022-11-09T17:51:37.629Z,15.68
2022-11-09T17:54:05.033Z,15.66
2022-11-09T17:56:34.096Z,15.67
2022-11-09T17:59:04.583Z,15.67
2022-11-09T18:01:36.375Z,15.67
2022-11-09T18:04:08.503Z,15.67
2022-11-09T18:06:36.111Z,15.66
2022-11-09T18:09:39.145Z,15.66
2022-11-09T18:11:51.410Z,15.66
2022-11-09T18:14:18.824Z,15.64
2022-11-09T18:16:46.823Z,15.64
2022-11-09T18:19:14.099Z,15.64
2022-11-09T18:21:41.642Z,15.64
2022-11-09T18:24:08.958Z,15.63
2022-11-09T18:26:36.286Z,15.64
2022-11-09T18:29:03.915Z,15.63
2022-11-09T18:31:31.210Z,15.62
2022-11-09T18:33:58.461Z,15.63
2022-11-09T18:36:27.781Z,15.62
2022-11-09T18:38:55.924Z,15.63
2022-11-09T18:41:24.629Z,15.62
2022-11-09T18:43:53.857Z,15.63
2022-11-09T18:46:22.200Z,15.62
2022-11-09T18:48:54.111Z,15.62
2022-11-09T18:51:21.959Z,15.62
2022-11-09T18:53:49.830Z,15.60
2022-11-09T18:56:23.963Z,15.61
2022-11-09T18:58:53.833Z,15.62
2022-11-09T19:01:23.804Z,15.61
2022-11-09T19:03:56.342Z,15.60
2022-11-09T19:06:26.419Z,15.61
2022-11-09T19:09:15.707Z,15.60
2022-11-09T19:11:44.088Z,15.61
2022-11-09T19:14:11.882Z,15.59
2022-11-09T19:16:40.042Z,15.60
2022-11-09T19:19:13.557Z,15.60
2022-11-09T19:21:43.688Z,15.60
2022-11-09T19:24:13.317Z,15.59
2022-11-09T19:26:40.650Z,15.59
2022-11-09T19:29:09.928Z,15.59
2022-11-09T19:31:38.529Z,15.60
2022-11-09T19:34:06.143Z,15.59
2022-11-09T19:36:33.739Z,15.58
2022-11-09T19:39:01.508Z,15.58
2022-11-09T19:41:29.318Z,15.57
2022-11-09T19:44:00.728Z,15.57
2022-11-09T19:46:33.160Z,15.58
2022-11-09T19:49:01.530Z,15.58
2022-11-09T19:51:30.935Z,15.58
2022-11-09T19:54:00.336Z,15.57
2022-11-09T19:56:30.173Z,15.57
2022-11-09T19:59:00.172Z,15.58
2022-11-09T20:01:28.564Z,15.57
2022-11-09T20:03:57.688Z,15.57
2022-11-09T20:06:26.029Z,15.57
2022-11-09T20:08:53.894Z,15.57
2022-11-09T20:11:42.837Z,15.56
2022-11-09T20:14:11.657Z,15.56
2022-11-09T20:16:40.328Z,15.55
2022-11-09T20:19:10.767Z,15.55
2022-11-09T20:21:40.182Z,15.56
2022-11-09T20:24:08.537Z,15.54
2022-11-09T20:26:36.274Z,15.56
2022-11-09T20:29:04.618Z,15.61
2022-11-09T20:31:32.047Z,15.59
2022-11-09T20:34:02.273Z,15.59
2022-11-09T20:36:29.567Z,15.59
2022-11-09T20:38:57.225Z,15.58
2022-11-09T20:41:25.889Z,15.61
2022-11-09T20:43:53.707Z,15.59
2022-11-09T20:46:22.957Z,15.60
2022-11-09T20:49:00.928Z,15.59
2022-11-09T20:51:29.131Z,15.58
2022-11-09T20:53:56.542Z,15.59
2022-11-09T20:56:24.251Z,15.59
2022-11-09T20:58:51.652Z,15.59
2022-11-09T21:01:21.684Z,15.59
2022-11-09T21:03:51.027Z,15.59
2022-11-09T21:06:20.847Z,15.58
2022-11-09T21:08:53.736Z,15.59
2022-11-09T21:11:23.734Z,15.59
2022-11-09T21:13:53.127Z,15.58
2022-11-09T21:16:22.983Z,15.58
2022-11-09T21:18:50.754Z,15.59
2022-11-09T21:21:20.292Z,15.57
2022-11-09T21:24:06.813Z,15.57
2022-11-09T21:26:53.046Z,15.58
2022-11-09T21:29:42.383Z,15.56
2022-11-09T21:32:12.002Z,15.57
2022-11-09T21:34:39.603Z,15.56
2022-11-09T21:37:06.873Z,15.56
2022-11-09T21:39:34.788Z,15.55
2022-11-09T21:42:04.101Z,15.55
2022-11-09T21:44:32.546Z,15.55
2022-11-09T21:47:01.010Z,15.56
2022-11-09T21:49:28.996Z,15.56
2022-11-09T21:51:57.015Z,15.56
2022-11-09T21:54:24.466Z,15.55
2022-11-09T21:56:52.499Z,15.55
2022-11-09T21:59:20.243Z,15.54
2022-11-09T22:01:47.970Z,15.54
2022-11-09T22:04:15.654Z,15.55
2022-11-09T22:06:43.514Z,15.54
2022-11-09T22:09:16.595Z,15.55
2022-11-09T22:12:03.069Z,15.54
2022-11-09T22:14:49.742Z,15.55
2022-11-09T22:17:17.001Z,15.55
2022-11-09T22:20:03.382Z,15.54
2022-11-09T22:22:31.611Z,15.54
2022-11-09T22:24:59.184Z,15.53
2022-11-09T22:27:30.322Z,15.53
2022-11-09T22:29:57.615Z,15.53
2022-11-09T22:32:25.778Z,15.53
2022-11-09T22:34:53.053Z,15.53
2022-11-09T22:37:20.949Z,15.52
2022-11-09T22:39:48.280Z,15.52
2022-11-09T22:42:15.540Z,15.53
2022-11-09T22:44:43.280Z,15.52
2022-11-09T22:47:11.160Z,15.51
2022-11-09T22:49:38.681Z,15.52
2022-11-09T22:52:06.276Z,15.52
2022-11-09T22:54:33.489Z,15.51
2022-11-09T22:57:00.815Z,15.51
2022-11-09T22:59:28.425Z,15.52
2022-11-09T23:01:55.763Z,15.52
2022-11-09T23:04:23.317Z,15.51
2022-11-09T23:06:51.647Z,15.51
2022-11-09T23:09:19.052Z,15.52
2022-11-09T23:11:46.328Z,15.51
2022-11-09T23:14:14.272Z,15.51
2022-11-09T23:16:41.554Z,15.51
2022-11-09T23:19:08.780Z,15.51
2022-11-09T23:21:37.518Z,15.52
2022-11-09T23:24:07.216Z,15.51
2022-11-09T23:26:34.775Z,15.50
2022-11-09T23:29:02.447Z,15.50
2022-11-09T23:31:29.725Z,15.50
2022-11-09T23:33:58.115Z,15.50
2022-11-09T23:36:26.274Z,15.50
2022-11-09T23:38:53.912Z,15.50
2022-11-09T23:41:21.511Z,15.51
2022-11-09T23:43:49.864Z,15.49
2022-11-09T23:46:17.793Z,15.50
2022-11-09T23:48:45.450Z,15.49
2022-11-09T23:51:12.807Z,15.48
2022-11-09T23:53:40.119Z,15.49
2022-11-09T23:56:10.515Z,15.49
2022-11-09T23:58:38.555Z,15.48
